sensor_id;sensor_type;location;lat;lon;timestamp;pressure;altitude;pressure_sealevel;temperature;humidity
40460;BME280;26164;51.138;16.952;2024-03-25T00:01:53;74657.81;;;-146.39;37.29
40460;BME280;26164;51.138;16.952;2024-03-25T00:04:35;74674.13;;;-146.39;37.54
40460;BME280;26164;51.138;16.952;2024-03-25T00:07:04;74612.91;;;-146.39;37.00
40460;BME280;26164;51.138;16.952;2024-03-25T00:09:56;74563.94;;;-146.39;36.42
40460;BME280;26164;51.138;16.952;2024-03-25T00:12:55;74576.19;;;-146.39;36.57
40460;BME280;26164;51.138;16.952;2024-03-25T00:15:42;74665.97;;;-146.39;37.44
40460;BME280;26164;51.138;16.952;2024-03-25T00:18:29;74696.59;;;-146.39;37.56
40460;BME280;26164;51.138;16.952;2024-03-25T00:21:08;74551.72;;;-146.39;36.51
40460;BME280;26164;51.138;16.952;2024-03-25T00:23:36;74608.84;;;-146.39;36.82
40460;BME280;26164;51.138;16.952;2024-03-25T00:29:01;74541.50;;;-146.39;36.46
40460;BME280;26164;51.138;16.952;2024-03-25T00:31:29;74557.81;;;-146.39;36.37
40460;BME280;26164;51.138;16.952;2024-03-25T00:33:55;74568.03;;;-146.39;36.62
40460;BME280;26164;51.138;16.952;2024-03-25T00:36:36;74665.97;;;-146.39;37.21
40460;BME280;26164;51.138;16.952;2024-03-25T00:39:03;74629.25;;;-146.39;37.48
40460;BME280;26164;51.138;16.952;2024-03-25T00:41:29;74739.44;;;-146.39;38.37
40460;BME280;26164;51.138;16.952;2024-03-25T00:44:03;74863.91;;;-146.39;40.89
40460;BME280;26164;51.138;16.952;2024-03-25T00:46:29;74874.13;;;-146.39;42.03
40460;BME280;26164;51.138;16.952;2024-03-25T00:48:59;74717.00;;;-146.39;41.42
40460;BME280;26164;51.138;16.952;2024-03-25T00:51:25;74819.00;;;-146.39;42.68
40460;BME280;26164;51.138;16.952;2024-03-25T00:53:58;74700.66;;;-146.39;41.25
40460;BME280;26164;51.138;16.952;2024-03-25T00:56:25;74661.91;;;-146.39;41.75
40460;BME280;26164;51.138;16.952;2024-03-25T00:59:22;74865.94;;;-146.39;54.71
40460;BME280;26164;51.138;16.952;2024-03-25T01:01:58;75000.63;;;-146.39;49.44
40460;BME280;26164;51.138;16.952;2024-03-25T01:04:39;74810.84;;;-146.39;46.92
40460;BME280;26164;51.138;16.952;2024-03-25T01:07:13;74874.13;;;-146.39;46.50
40460;BME280;26164;51.138;16.952;2024-03-25T01:09:47;74876.16;;;-146.39;46.76
40460;BME280;26164;51.138;16.952;2024-03-25T01:12:17;74861.88;;;-146.39;46.73
40460;BME280;26164;51.138;16.952;2024-03-25T01:32:50;74498.66;;;-146.39;41.09
40460;BME280;26164;51.138;16.952;2024-03-25T01:35:54;74584.34;;;-146.39;41.91
40460;BME280;26164;51.138;16.952;2024-03-25T01:38:39;74527.22;;;-146.39;41.13
40460;BME280;26164;51.138;16.952;2024-03-25T01:41:31;74470.09;;;-146.39;40.37
40460;BME280;26164;51.138;16.952;2024-03-25T01:43:59;74514.97;;;-146.39;40.81
40460;BME280;26164;51.138;16.952;2024-03-25T03:25:47;74704.75;;;-146.39;44.27
40460;BME280;26164;51.138;16.952;2024-03-25T03:28:18;74702.69;;;-146.39;43.75
40460;BME280;26164;51.138;16.952;2024-03-25T03:30:45;74696.59;;;-146.39;43.96
40460;BME280;26164;51.138;16.952;2024-03-25T03:33:15;74694.53;;;-146.39;44.20
40460;BME280;26164;51.138;16.952;2024-03-25T03:38:51;74637.41;;;-146.39;43.71
40460;BME280;26164;51.138;16.952;2024-03-25T03:42:26;74710.88;;;-146.39;44.53
40460;BME280;26164;51.138;16.952;2024-03-25T07:12:25;74806.78;;;-146.39;46.16
40460;BME280;26164;51.138;16.952;2024-03-25T09:40:35;73574.44;;;-146.39;30.17
40460;BME280;26164;51.138;16.952;2024-03-25T10:50:21;73943.69;;;-146.39;32.81
40460;BME280;26164;51.138;16.952;2024-03-25T10:53:28;74066.09;;;-146.39;34.28
40460;BME280;26164;51.138;16.952;2024-03-25T11:00:08;73943.69;;;-146.39;32.61
40460;BME280;26164;51.138;16.952;2024-03-25T11:09:22;74084.47;;;-146.39;33.59
40460;BME280;26164;51.138;16.952;2024-03-25T11:27:21;73868.22;;;-146.39;31.45
40460;BME280;26164;51.138;16.952;2024-03-25T11:30:21;74023.25;;;-146.39;32.00
40460;BME280;26164;51.138;16.952;2024-03-25T11:33:11;73666.25;;;-146.39;30.05
40460;BME280;26164;51.138;16.952;2024-03-25T11:35:51;73866.16;;;-146.39;31.26
40460;BME280;26164;51.138;16.952;2024-03-25T11:38:33;73909.00;;;-146.39;32.04
40460;BME280;26164;51.138;16.952;2024-03-25T11:41:15;74241.56;;;-146.39;33.62
40460;BME280;26164;51.138;16.952;2024-03-25T11:43:59;74135.47;;;-146.39;33.20
40460;BME280;26164;51.138;16.952;2024-03-25T11:46:50;74062.03;;;-146.39;33.13
40460;BME280;26164;51.138;16.952;2024-03-25T11:49:50;74039.59;;;-146.39;32.71
40460;BME280;26164;51.138;16.952;2024-03-25T11:55:40;74053.88;;;-146.39;33.06
40460;BME280;26164;51.138;16.952;2024-03-25T11:58:30;73825.38;;;-146.39;31.57
40460;BME280;26164;51.138;16.952;2024-03-25T12:01:13;73715.19;;;-146.39;31.01
40460;BME280;26164;51.138;16.952;2024-03-25T12:04:22;73833.53;;;-146.39;31.25
40460;BME280;26164;51.138;16.952;2024-03-25T12:07:07;73804.97;;;-146.39;31.59
40460;BME280;26164;51.138;16.952;2024-03-25T12:09:50;73758.03;;;-146.39;30.82
40460;BME280;26164;51.138;16.952;2024-03-25T12:12:50;73829.44;;;-146.39;31.38
40460;BME280;26164;51.138;16.952;2024-03-25T12:15:22;73919.22;;;-146.39;31.44
40460;BME280;26164;51.138;16.952;2024-03-25T12:17:56;73919.22;;;-146.39;31.35
40460;BME280;26164;51.138;16.952;2024-03-25T12:20:27;73894.72;;;-146.39;31.20
40460;BME280;26164;51.138;16.952;2024-03-25T12:22:53;73980.41;;;-146.39;31.59
40460;BME280;26164;51.138;16.952;2024-03-25T12:25:40;73921.25;;;-146.39;31.24
40460;BME280;26164;51.138;16.952;2024-03-25T12:28:17;73931.44;;;-146.39;31.20
40460;BME280;26164;51.138;16.952;2024-03-25T12:31:03;73976.34;;;-146.39;32.00
40460;BME280;26164;51.138;16.952;2024-03-25T12:33:53;73870.25;;;-146.39;30.81
40460;BME280;26164;51.138;16.952;2024-03-25T12:36:41;73813.13;;;-146.39;30.57
40460;BME280;26164;51.138;16.952;2024-03-25T12:39:22;73878.41;;;-146.39;30.74
40460;BME280;26164;51.138;16.952;2024-03-25T12:42:11;73723.34;;;-146.39;30.20
40460;BME280;26164;51.138;16.952;2024-03-25T12:44:57;73709.06;;;-146.39;29.54
40460;BME280;26164;51.138;16.952;2024-03-25T12:47:33;73674.41;;;-146.39;29.30
40460;BME280;26164;51.138;16.952;2024-03-25T12:50:01;73951.84;;;-146.39;30.75
40460;BME280;26164;51.138;16.952;2024-03-25T12:52:43;73829.44;;;-146.39;30.04
40460;BME280;26164;51.138;16.952;2024-03-25T12:55:40;73872.28;;;-146.39;30.77
40460;BME280;26164;51.138;16.952;2024-03-25T12:58:16;73882.50;;;-146.39;30.63
40460;BME280;26164;51.138;16.952;2024-03-25T13:01:12;73835.56;;;-146.39;29.78
40460;BME280;26164;51.138;16.952;2024-03-25T13:03:55;73862.09;;;-146.39;30.04
40460;BME280;26164;51.138;16.952;2024-03-25T13:06:21;73902.88;;;-146.39;30.65
40460;BME280;26164;51.138;16.952;2024-03-25T13:08:48;73935.53;;;-146.39;30.66
40460;BME280;26164;51.138;16.952;2024-03-25T13:11:14;73935.53;;;-146.39;30.47
40460;BME280;26164;51.138;16.952;2024-03-25T13:13:43;73735.59;;;-146.39;29.42
40460;BME280;26164;51.138;16.952;2024-03-25T13:16:10;73711.13;;;-146.39;28.91
40460;BME280;26164;51.138;16.952;2024-03-25T13:18:37;73841.69;;;-146.39;29.40
40460;BME280;26164;51.138;16.952;2024-03-25T13:21:05;73817.19;;;-146.39;29.30
40460;BME280;26164;51.138;16.952;2024-03-25T13:23:31;74037.53;;;-146.39;30.19
40460;BME280;26164;51.138;16.952;2024-03-25T13:25:58;73892.69;;;-146.39;29.69
40460;BME280;26164;51.138;16.952;2024-03-25T13:28:25;73964.09;;;-146.39;30.07
40460;BME280;26164;51.138;16.952;2024-03-25T13:30:51;73894.72;;;-146.39;29.69
40460;BME280;26164;51.138;16.952;2024-03-25T13:33:17;73666.25;;;-146.39;27.99
40460;BME280;26164;51.138;16.952;2024-03-25T13:35:46;73719.28;;;-146.39;28.53
40460;BME280;26164;51.138;16.952;2024-03-25T13:38:12;73466.31;;;-146.39;27.49
40460;BME280;26164;51.138;16.952;2024-03-25T13:40:39;73737.63;;;-146.39;28.66
40460;BME280;26164;51.138;16.952;2024-03-25T13:43:05;73760.06;;;-146.39;28.82
40460;BME280;26164;51.138;16.952;2024-03-25T13:45:47;73556.06;;;-146.39;28.21
40460;BME280;26164;51.138;16.952;2024-03-25T13:48:15;73588.72;;;-146.39;28.56
40460;BME280;26164;51.138;16.952;2024-03-25T13:50:56;73572.41;;;-146.39;28.12
40460;BME280;26164;51.138;16.952;2024-03-25T13:53:38;73662.16;;;-146.39;28.51
40460;BME280;26164;51.138;16.952;2024-03-25T13:56:21;73609.13;;;-146.39;28.19
40460;BME280;26164;51.138;16.952;2024-03-25T13:58:50;73768.25;;;-146.39;29.37
40460;BME280;26164;51.138;16.952;2024-03-25T14:01:16;73827.41;;;-146.39;30.79
40460;BME280;26164;51.138;16.952;2024-03-25T14:03:53;73949.81;;;-146.39;30.42
40460;BME280;26164;51.138;16.952;2024-03-25T14:06:22;74043.66;;;-146.39;31.15
40460;BME280;26164;51.138;16.952;2024-03-25T14:08:59;73980.41;;;-146.39;31.30
40460;BME280;26164;51.138;16.952;2024-03-25T14:11:25;73947.78;;;-146.39;31.51
40460;BME280;26164;51.138;16.952;2024-03-25T14:13:56;73780.47;;;-146.39;30.76
40460;BME280;26164;51.138;16.952;2024-03-25T14:16:24;73902.88;;;-146.39;31.03
40460;BME280;26164;51.138;16.952;2024-03-25T14:19:06;73984.50;;;-146.39;31.63
40460;BME280;26164;51.138;16.952;2024-03-25T14:21:50;74008.97;;;-146.39;30.98
40460;BME280;26164;51.138;16.952;2024-03-25T14:24:40;73933.50;;;-146.39;30.63
40460;BME280;26164;51.138;16.952;2024-03-25T14:28:19;73947.78;;;-146.39;30.22
40460;BME280;26164;51.138;16.952;2024-03-25T14:31:01;73860.03;;;-146.39;29.66
40460;BME280;26164;51.138;16.952;2024-03-25T14:33:34;73968.16;;;-146.39;30.07
40460;BME280;26164;51.138;16.952;2024-03-25T14:36:02;74021.22;;;-146.39;30.41
40460;BME280;26164;51.138;16.952;2024-03-25T14:38:44;73790.69;;;-146.39;29.61
40460;BME280;26164;51.138;16.952;2024-03-25T14:41:43;73698.88;;;-146.39;28.95
40460;BME280;26164;51.138;16.952;2024-03-25T14:47:21;73721.31;;;-146.39;29.02
40460;BME280;26164;51.138;16.952;2024-03-25T14:50:08;73890.66;;;-146.39;29.80
40460;BME280;26164;51.138;16.952;2024-03-25T14:52:57;73788.63;;;-146.39;29.37
40460;BME280;26164;51.138;16.952;2024-03-25T14:56:01;73890.66;;;-146.39;29.22
40460;BME280;26164;51.138;16.952;2024-03-25T14:59:02;73719.28;;;-146.39;28.36
40460;BME280;26164;51.138;16.952;2024-03-25T15:02:10;73925.34;;;-146.39;29.78
40460;BME280;26164;51.138;16.952;2024-03-25T15:07:45;73782.53;;;-146.39;28.84
40460;BME280;26164;51.138;16.952;2024-03-25T15:10:28;73676.44;;;-146.39;28.25
40460;BME280;26164;51.138;16.952;2024-03-25T15:13:09;73758.03;;;-146.39;28.36
40460;BME280;26164;51.138;16.952;2024-03-25T15:15:51;73874.31;;;-146.39;29.80
40460;BME280;26164;51.138;16.952;2024-03-25T15:18:33;73678.47;;;-146.39;28.69
40460;BME280;26164;51.138;16.952;2024-03-25T15:21:29;73727.44;;;-146.39;28.57
40460;BME280;26164;51.138;16.952;2024-03-25T15:24:10;73764.16;;;-146.39;28.57
40460;BME280;26164;51.138;16.952;2024-03-25T15:26:54;73774.38;;;-146.39;28.40
40460;BME280;26164;51.138;16.952;2024-03-25T15:35:41;73821.28;;;-146.39;29.32
40460;BME280;26164;51.138;16.952;2024-03-25T15:38:23;73819.25;;;-146.39;29.04
40460;BME280;26164;51.138;16.952;2024-03-25T15:41:05;73882.50;;;-146.39;29.45
40460;BME280;26164;51.138;16.952;2024-03-25T15:43:54;73953.88;;;-146.39;29.74
40460;BME280;26164;51.138;16.952;2024-03-25T15:46:47;73902.88;;;-146.39;29.21
40460;BME280;26164;51.138;16.952;2024-03-25T15:49:31;74076.31;;;-146.39;30.39
40460;BME280;26164;51.138;16.952;2024-03-25T15:52:29;73996.75;;;-146.39;29.95
40460;BME280;26164;51.138;16.952;2024-03-25T15:56:30;73813.13;;;-146.39;29.09
40460;BME280;26164;51.138;16.952;2024-03-25T15:59:17;73972.25;;;-146.39;29.41
40460;BME280;26164;51.138;16.952;2024-03-25T16:02:13;73984.50;;;-146.39;29.15
40460;BME280;26164;51.138;16.952;2024-03-25T16:04:57;73825.38;;;-146.39;28.45
40460;BME280;26164;51.138;16.952;2024-03-25T16:07:25;73902.88;;;-146.39;28.43
40460;BME280;26164;51.138;16.952;2024-03-25T16:25:50;73886.56;;;-146.39;28.45
40460;BME280;26164;51.138;16.952;2024-03-25T16:28:30;73809.03;;;-146.39;28.30
40460;BME280;26164;51.138;16.952;2024-03-25T16:31:14;73917.16;;;-146.39;28.75
40460;BME280;26164;51.138;16.952;2024-03-25T16:33:55;73825.38;;;-146.39;28.67
40460;BME280;26164;51.138;16.952;2024-03-25T16:36:36;73758.03;;;-146.39;28.21
40460;BME280;26164;51.138;16.952;2024-03-25T16:42:22;73913.09;;;-146.39;29.18
40460;BME280;26164;51.138;16.952;2024-03-25T17:20:07;74066.09;;;-146.39;29.97
40460;BME280;26164;51.138;16.952;2024-03-25T17:23:08;74066.09;;;-146.39;30.10
40460;BME280;26164;51.138;16.952;2024-03-25T17:34:55;73980.41;;;-146.39;29.16
40460;BME280;26164;51.138;16.952;2024-03-25T17:37:46;73817.19;;;-146.39;28.03
40460;BME280;26164;51.138;16.952;2024-03-25T17:44:04;73821.28;;;-146.39;28.23
40460;BME280;26164;51.138;16.952;2024-03-25T18:01:48;74041.63;;;-146.39;28.73
40460;BME280;26164;51.138;16.952;2024-03-25T18:04:22;73964.09;;;-146.39;28.83
40460;BME280;26164;51.138;16.952;2024-03-25T18:06:50;73935.53;;;-146.39;28.55
40460;BME280;26164;51.138;16.952;2024-03-25T18:09:38;73815.16;;;-146.39;27.65
40460;BME280;26164;51.138;16.952;2024-03-25T18:12:23;73792.72;;;-146.39;27.97
40460;BME280;26164;51.138;16.952;2024-03-25T18:15:08;73947.78;;;-146.39;28.45
40460;BME280;26164;51.138;16.952;2024-03-25T18:17:43;73960.00;;;-146.39;28.60
40460;BME280;26164;51.138;16.952;2024-03-25T18:20:31;74035.50;;;-146.39;29.34
40460;BME280;26164;51.138;16.952;2024-03-25T18:26:13;74094.66;;;-146.39;29.72
40460;BME280;26164;51.138;16.952;2024-03-25T18:28:58;74013.06;;;-146.39;29.21
40460;BME280;26164;51.138;16.952;2024-03-25T18:37:41;73739.69;;;-146.39;27.49
40460;BME280;26164;51.138;16.952;2024-03-25T18:43:39;73870.25;;;-146.39;28.13
40460;BME280;26164;51.138;16.952;2024-03-25T18:46:22;73802.91;;;-146.39;27.92
40460;BME280;26164;51.138;16.952;2024-03-25T18:49:47;73809.03;;;-146.39;27.48
40460;BME280;26164;51.138;16.952;2024-03-25T18:52:28;73925.34;;;-146.39;27.98
40460;BME280;26164;51.138;16.952;2024-03-25T18:54:57;73741.72;;;-146.39;27.13
40460;BME280;26164;51.138;16.952;2024-03-25T18:57:44;73723.34;;;-146.39;26.87
40460;BME280;26164;51.138;16.952;2024-03-25T19:00:22;73786.59;;;-146.39;27.46
40460;BME280;26164;51.138;16.952;2024-03-25T19:03:03;73955.94;;;-146.39;28.28
40460;BME280;26164;51.138;16.952;2024-03-25T19:05:32;73923.28;;;-146.39;28.42
40460;BME280;26164;51.138;16.952;2024-03-25T19:10:49;73809.03;;;-146.39;27.39
40460;BME280;26164;51.138;16.952;2024-03-25T19:13:32;73849.84;;;-146.39;27.80
40460;BME280;26164;51.138;16.952;2024-03-25T19:16:00;73833.53;;;-146.39;27.63
40460;BME280;26164;51.138;16.952;2024-03-25T19:18:28;73868.22;;;-146.39;27.75
40460;BME280;26164;51.138;16.952;2024-03-25T19:21:10;73870.25;;;-146.39;27.48
40460;BME280;26164;51.138;16.952;2024-03-25T19:23:50;73890.66;;;-146.39;27.72
40460;BME280;26164;51.138;16.952;2024-03-25T19:26:46;73890.66;;;-146.39;27.74
40460;BME280;26164;51.138;16.952;2024-03-25T19:29:33;73666.25;;;-146.39;26.86
40460;BME280;26164;51.138;16.952;2024-03-25T19:32:19;73731.53;;;-146.39;26.63
40460;BME280;26164;51.138;16.952;2024-03-25T19:35:29;73831.47;;;-146.39;27.33
40460;BME280;26164;51.138;16.952;2024-03-25T19:38:16;73976.34;;;-146.39;28.42
40460;BME280;26164;51.138;16.952;2024-03-25T19:41:02;74078.34;;;-146.39;28.83
40460;BME280;26164;51.138;16.952;2024-03-25T19:47:01;74066.09;;;-146.39;28.76
40460;BME280;26164;51.138;16.952;2024-03-25T19:49:34;74094.66;;;-146.39;28.89
40460;BME280;26164;51.138;16.952;2024-03-25T19:52:03;73994.69;;;-146.39;28.66
40460;BME280;26164;51.138;16.952;2024-03-25T19:54:46;73990.63;;;-146.39;28.45
40460;BME280;26164;51.138;16.952;2024-03-25T19:57:39;73980.41;;;-146.39;28.50
40460;BME280;26164;51.138;16.952;2024-03-25T20:00:21;74035.50;;;-146.39;28.55
40460;BME280;26164;51.138;16.952;2024-03-25T20:02:51;73980.41;;;-146.39;28.39
40460;BME280;26164;51.138;16.952;2024-03-25T20:05:35;74037.53;;;-146.39;28.52
40460;BME280;26164;51.138;16.952;2024-03-25T20:08:20;73998.78;;;-146.39;28.54
40460;BME280;26164;51.138;16.952;2024-03-25T20:10:49;74037.53;;;-146.39;28.60
40460;BME280;26164;51.138;16.952;2024-03-25T20:13:27;73976.34;;;-146.39;28.03
40460;BME280;26164;51.138;16.952;2024-03-25T20:16:10;74006.94;;;-146.39;28.13
40460;BME280;26164;51.138;16.952;2024-03-25T20:19:09;74088.53;;;-146.39;29.11
40460;BME280;26164;51.138;16.952;2024-03-25T20:22:39;74143.63;;;-146.39;29.31
40460;BME280;26164;51.138;16.952;2024-03-25T20:25:22;74111.00;;;-146.39;29.21
40460;BME280;26164;51.138;16.952;2024-03-25T20:28:34;74119.16;;;-146.39;29.51
40460;BME280;26164;51.138;16.952;2024-03-25T21:51:13;74374.19;;;-146.39;30.85
40460;BME280;26164;51.138;16.952;2024-03-25T23:34:51;74235.44;;;-146.39;28.95
